Time;durP1;ratioP1;P1;durP2;ratioP2;P2;SDS_P1;SDS_P2;PMS_P1;PMS_P2;Temp;Humidity;BMP_temperature;BMP_pressure;BME280_temperature;BME280_humidity;BME280_pressure;Samples;Min_cycle;Max_cycle;Signal;HPM_P1;HPM_P2
2023/07/07 00:01:02;;;;;;;0.00;0.00;;;17.50;99.90;;;;;;5072455;28;20032;-77
2023/07/07 00:03:28;;;;;;;0.00;0.00;;;17.50;99.90;;;;;;5071087;28;20024;-78
2023/07/07 00:05:54;;;;;;;0.00;0.00;;;17.50;99.90;;;;;;5072273;28;20025;-77
2023/07/07 00:08:20;;;;;;;0.00;0.00;;;17.70;99.90;;;;;;5071143;28;20033;-77
2023/07/07 00:10:46;;;;;;;0.00;0.00;;;17.60;99.90;;;;;;5071592;28;20013;-76
2023/07/07 00:13:14;;;;;;;0.20;0.20;;;17.30;99.90;;;;;;5072436;28;20505;-77
2023/07/07 00:15:44;;;;;;;0.00;0.00;;;17.10;99.90;;;;;;5070892;28;20043;-78
2023/07/07 00:18:27;;;;;;;0.00;0.00;;;17.10;99.90;;;;;;5070911;28;20159;-78
2023/07/07 00:21:00;;;;;;;0.00;0.00;;;17.10;99.90;;;;;;5072172;28;20031;-77
2023/07/07 00:23:29;;;;;;;0.00;0.00;;;17.10;99.90;;;;;;5072378;28;20031;-78
2023/07/07 00:26:02;;;;;;;0.00;0.00;;;17.00;99.90;;;;;;5070649;28;20063;-77
2023/07/07 00:28:29;;;;;;;0.08;0.08;;;17.20;99.90;;;;;;5072410;28;20032;-77
2023/07/07 00:30:55;;;;;;;0.00;0.00;;;17.20;99.90;;;;;;5070597;28;20021;-77
2023/07/07 00:33:21;;;;;;;0.00;0.00;;;17.30;99.90;;;;;;5054190;28;20027;-77
2023/07/07 00:35:50;;;;;;;0.00;0.00;;;17.40;99.90;;;;;;5070769;28;20413;-77
2023/07/07 00:38:17;;;;;;;0.00;0.00;;;17.30;99.90;;;;;;5070686;28;20473;-77
2023/07/07 00:40:43;;;;;;;0.00;0.00;;;17.20;99.90;;;;;;5070484;28;20036;-78
2023/07/07 00:43:17;;;;;;;0.00;0.00;;;17.10;99.90;;;;;;5067724;28;20035;-76
2023/07/07 00:45:44;;;;;;;0.00;0.00;;;17.20;99.90;;;;;;5071848;28;20029;-76
2023/07/07 00:48:19;;;;;;;0.00;0.00;;;17.40;99.90;;;;;;5071995;28;20437;-74
2023/07/07 00:51:09;;;;;;;0.00;0.00;;;17.50;99.90;;;;;;5071039;28;20013;-75
2023/07/07 00:53:36;;;;;;;0.00;0.00;;;17.30;99.90;;;;;;5073946;28;20031;-75
2023/07/07 00:56:06;;;;;;;0.00;0.00;;;17.10;99.90;;;;;;5074056;28;20503;-75
2023/07/07 00:58:35;;;;;;;0.00;0.00;;;16.80;99.90;;;;;;5074032;28;20036;-74
2023/07/07 01:01:13;;;;;;;0.00;0.00;;;16.70;99.90;;;;;;5073880;28;20036;-74
2023/07/07 01:03:43;;;;;;;0.00;0.00;;;16.70;99.90;;;;;;5075248;28;20025;-73
2023/07/07 01:06:12;;;;;;;0.00;0.00;;;16.60;99.90;;;;;;5073898;28;20025;-75
2023/07/07 01:08:40;;;;;;;0.00;0.00;;;16.60;99.90;;;;;;5074024;28;20047;-74
2023/07/07 01:11:08;;;;;;;0.00;0.00;;;16.60;99.90;;;;;;5073996;28;20042;-74
2023/07/07 01:13:35;;;;;;;0.00;0.00;;;16.50;99.90;;;;;;5075161;28;20033;-76
2023/07/07 01:16:21;;;;;;;0.00;0.00;;;16.50;99.90;;;;;;5070804;28;20082;-74
2023/07/07 01:18:51;;;;;;;0.00;0.00;;;16.60;99.90;;;;;;5054272;28;20508;-77
2023/07/07 01:21:29;;;;;;;0.10;0.10;;;16.70;99.90;;;;;;5053279;28;20504;-76
2023/07/07 01:24:09;;;;;;;0.00;0.00;;;16.60;99.90;;;;;;5054785;28;20036;-74
2023/07/07 01:26:56;;;;;;;0.00;0.00;;;16.50;99.90;;;;;;5054714;28;20086;-75
2023/07/07 01:29:56;;;;;;;0.00;0.00;;;16.50;99.90;;;;;;5054843;28;20036;-75
2023/07/07 01:32:25;;;;;;;0.00;0.00;;;16.50;99.90;;;;;;5054339;28;20456;-76
2023/07/07 01:34:56;;;;;;;0.00;0.00;;;16.40;99.90;;;;;;5055066;28;20031;-76
2023/07/07 01:37:22;;;;;;;0.00;0.00;;;16.50;99.90;;;;;;5036467;28;20032;-76
2023/07/07 01:39:51;;;;;;;0.00;0.00;;;16.50;99.90;;;;;;5054642;28;20044;-78
2023/07/07 01:42:45;;;;;;;0.00;0.00;;;16.50;99.90;;;;;;5054348;28;20115;-75
2023/07/07 01:45:31;;;;;;;0.00;0.00;;;16.40;99.90;;;;;;5051401;28;20033;-76
2023/07/07 01:48:20;;;;;;;0.10;0.10;;;16.50;99.90;;;;;;5042345;28;20029;-76
2023/07/07 01:50:48;;;;;;;0.00;0.00;;;16.60;99.90;;;;;;5054351;28;20036;-77
2023/07/07 01:53:22;;;;;;;0.00;0.00;;;16.60;99.90;;;;;;5054382;28;20381;-77
2023/07/07 01:55:54;;;;;;;0.00;0.00;;;16.50;99.90;;;;;;5053214;28;20402;-77
2023/07/07 01:58:21;;;;;;;0.00;0.00;;;16.50;99.90;;;;;;5054444;28;20378;-78
2023/07/07 02:00:50;;;;;;;0.00;0.00;;;16.60;99.90;;;;;;5053045;28;20029;-78
2023/07/07 02:03:17;;;;;;;0.43;0.25;;;16.50;99.90;;;;;;5052850;28;20029;-78
2023/07/07 02:05:43;;;;;;;1.75;1.65;;;16.50;99.90;;;;;;5054088;28;20013;-77
2023/07/07 02:08:09;;;;;;;0.00;0.00;;;16.50;99.90;;;;;;5053638;28;20473;-77
2023/07/07 02:10:36;;;;;;;0.00;0.00;;;16.50;99.90;;;;;;5054108;28;20032;-78
2023/07/07 02:13:02;;;;;;;0.00;0.00;;;16.60;99.90;;;;;;5052567;28;20025;-78
2023/07/07 02:15:27;;;;;;;0.08;0.08;;;16.60;99.90;;;;;;5053963;28;20033;-78
2023/07/07 02:17:55;;;;;;;0.00;0.00;;;16.60;99.90;;;;;;5052269;28;20021;-77
2023/07/07 02:20:21;;;;;;;0.00;0.00;;;16.60;99.90;;;;;;5052643;28;20036;-77
2023/07/07 02:22:47;;;;;;;0.00;0.00;;;16.60;99.90;;;;;;5051978;28;20099;-77
2023/07/07 02:25:13;;;;;;;0.00;0.00;;;16.50;99.90;;;;;;5052624;28;20554;-77
2023/07/07 02:27:39;;;;;;;0.00;0.00;;;16.50;99.90;;;;;;5053584;28;20108;-77
2023/07/07 02:30:06;;;;;;;0.10;0.10;;;16.50;99.90;;;;;;5053612;28;20016;-77
2023/07/07 02:32:32;;;;;;;0.00;0.00;;;16.50;99.90;;;;;;5053386;28;20036;-77
2023/07/07 02:35:01;;;;;;;0.13;0.13;;;16.50;99.90;;;;;;5053295;28;20473;-77
2023/07/07 02:37:27;;;;;;;0.00;0.00;;;16.50;99.90;;;;;;5053397;28;20025;-77
2023/07/07 02:39:54;;;;;;;0.00;0.00;;;16.50;99.90;;;;;;5051569;28;20140;-78
2023/07/07 02:42:20;;;;;;;1.02;1.02;;;16.50;99.90;;;;;;5052025;28;20017;-76
2023/07/07 02:44:46;;;;;;;0.00;0.00;;;16.50;99.90;;;;;;5052399;28;20041;-77
2023/07/07 02:47:12;;;;;;;0.00;0.00;;;16.50;99.90;;;;;;5051728;28;20505;-76
2023/07/07 02:49:39;;;;;;;0.00;0.00;;;16.40;99.90;;;;;;5052062;28;20048;-77
2023/07/07 02:52:06;;;;;;;0.00;0.00;;;16.30;99.90;;;;;;5035077;28;20485;-78
2023/07/07 02:54:32;;;;;;;0.13;0.13;;;16.30;99.90;;;;;;5051896;28;20501;-78
2023/07/07 02:56:58;;;;;;;0.00;0.00;;;16.30;99.90;;;;;;5053342;28;20021;-77
2023/07/07 02:59:24;;;;;;;0.00;0.00;;;16.30;99.90;;;;;;5052914;28;20091;-76
2023/07/07 03:01:50;;;;;;;0.82;0.47;;;16.30;99.90;;;;;;5053028;28;20473;-79
2023/07/07 03:04:16;;;;;;;0.00;0.00;;;16.20;99.90;;;;;;5034848;28;20032;-79
2023/07/07 03:06:41;;;;;;;0.00;0.00;;;16.10;99.90;;;;;;5053143;28;20039;-78
2023/07/07 03:09:09;;;;;;;0.00;0.00;;;16.10;99.90;;;;;;5052897;28;20029;-78
2023/07/07 03:11:37;;;;;;;0.00;0.00;;;16.20;99.90;;;;;;5051627;28;20032;-78
2023/07/07 03:14:05;;;;;;;0.00;0.00;;;16.20;99.90;;;;;;5052437;28;20377;-77
2023/07/07 03:16:33;;;;;;;0.00;0.00;;;16.30;99.90;;;;;;5051836;28;20045;-75
2023/07/07 03:19:07;;;;;;;0.00;0.00;;;16.30;99.90;;;;;;5051128;28;20029;-77
2023/07/07 03:21:39;;;;;;;0.00;0.00;;;16.30;99.90;;;;;;5051718;28;20409;-77
2023/07/07 03:24:18;;;;;;;0.10;0.10;;;16.30;99.90;;;;;;5051415;28;20025;-78
2023/07/07 03:26:44;;;;;;;0.00;0.00;;;16.30;99.90;;;;;;5051419;28;20074;-76
2023/07/07 03:29:14;;;;;;;0.10;0.10;;;16.30;99.90;;;;;;5035335;28;20049;-77
2023/07/07 03:31:41;;;;;;;0.10;0.10;;;16.30;99.90;;;;;;5051308;28;20029;-78
2023/07/07 03:34:07;;;;;;;0.00;0.00;;;16.30;99.90;;;;;;5051074;28;20532;-75
2023/07/07 03:36:38;;;;;;;0.22;0.22;;;16.10;99.90;;;;;;5050919;28;20047;-75
2023/07/07 03:39:06;;;;;;;0.00;0.00;;;16.10;99.90;;;;;;5050534;28;20044;-76
2023/07/07 03:41:32;;;;;;;0.00;0.00;;;16.10;99.90;;;;;;5050995;28;20104;-75
2023/07/07 03:44:01;;;;;;;0.00;0.00;;;16.10;99.90;;;;;;5051117;28;20087;-75
2023/07/07 03:46:30;;;;;;;0.00;0.00;;;16.10;99.90;;;;;;5051314;28;20492;-76
2023/07/07 03:48:57;;;;;;;0.00;0.00;;;16.10;99.90;;;;;;5050638;28;20029;-76
2023/07/07 03:51:34;;;;;;;0.00;0.00;;;16.10;99.90;;;;;;5050956;28;20078;-75
2023/07/07 03:54:04;;;;;;;0.00;0.00;;;16.10;99.90;;;;;;5034627;28;20029;-76
2023/07/07 03:56:32;;;;;;;0.52;0.52;;;16.20;99.90;;;;;;5051234;28;20021;-75
2023/07/07 03:58:57;;;;;;;0.00;0.00;;;16.20;99.90;;;;;;5050784;28;20448;-76
2023/07/07 04:01:24;;;;;;;0.00;0.00;;;16.20;99.90;;;;;;5034350;28;20394;-74
2023/07/07 04:03:51;;;;;;;0.00;0.00;;;16.10;99.90;;;;;;5051887;28;20040;-76
2023/07/07 04:06:18;;;;;;;0.00;0.00;;;16.10;99.90;;;;;;5050992;28;20033;-76
2023/07/07 04:08:45;;;;;;;0.00;0.00;;;16.20;99.90;;;;;;5050750;28;20033;-75
2023/07/07 04:11:15;;;;;;;0.00;0.00;;;16.20;99.90;;;;;;5051996;28;20422;-76
2023/07/07 04:13:42;;;;;;;0.00;0.00;;;16.30;99.90;;;;;;5050909;28;20131;-76
2023/07/07 04:16:17;;;;;;;0.00;0.00;;;16.10;99.90;;;;;;5050788;28;20462;-75
2023/07/07 04:18:44;;;;;;;0.00;0.00;;;16.20;99.90;;;;;;5033872;28;20033;-76
2023/07/07 04:21:16;;;;;;;0.00;0.00;;;16.10;99.90;;;;;;5050522;28;20021;-75
2023/07/07 04:23:44;;;;;;;0.00;0.00;;;16.20;99.90;;;;;;5034293;28;20455;-75
2023/07/07 04:26:11;;;;;;;0.00;0.00;;;16.20;99.90;;;;;;5053278;28;20116;-75
2023/07/07 04:28:37;;;;;;;0.00;0.00;;;16.30;99.90;;;;;;5056102;28;20128;-75
2023/07/07 04:31:06;;;;;;;0.10;0.10;;;16.30;99.90;;;;;;5055628;28;20029;-75
2023/07/07 04:33:32;;;;;;;0.00;0.00;;;16.20;99.90;;;;;;5055634;28;20016;-75
2023/07/07 04:36:01;;;;;;;1.85;1.13;;;16.20;99.90;;;;;;5055827;28;20111;-76
2023/07/07 04:38:32;;;;;;;0.00;0.00;;;16.40;99.90;;;;;;5055778;28;20087;-75
2023/07/07 04:41:11;;;;;;;2.53;0.68;;;16.40;99.90;;;;;;5055582;28;20028;-75
2023/07/07 04:43:39;;;;;;;0.03;0.03;;;16.40;99.90;;;;;;5055503;28;20071;-76
2023/07/07 04:46:07;;;;;;;0.05;0.05;;;16.40;99.90;;;;;;5055318;28;20037;-75
2023/07/07 04:48:33;;;;;;;0.00;0.00;;;16.40;99.90;;;;;;5055949;28;20028;-78
2023/07/07 04:51:06;;;;;;;0.00;0.00;;;16.40;99.90;;;;;;5054358;28;20033;-78
2023/07/07 04:53:32;;;;;;;0.00;0.00;;;16.50;99.90;;;;;;5055893;28;20021;-79
2023/07/07 04:55:59;;;;;;;0.00;0.00;;;16.70;99.90;;;;;;5055413;28;20037;-79
2023/07/07 04:58:26;;;;;;;0.00;0.00;;;16.80;99.90;;;;;;5055384;28;20037;-78
2023/07/07 05:00:53;;;;;;;0.00;0.00;;;16.80;99.90;;;;;;5054954;28;20025;-79
2023/07/07 05:03:19;;;;;;;0.00;0.00;;;16.90;99.90;;;;;;5055347;28;20035;-79
2023/07/07 05:05:45;;;;;;;0.43;0.43;;;16.80;99.90;;;;;;5055087;28;20033;-79
2023/07/07 05:08:11;;;;;;;0.00;0.00;;;16.90;99.90;;;;;;5055562;28;20414;-79
2023/07/07 05:10:37;;;;;;;0.05;0.05;;;17.00;99.90;;;;;;5055104;28;20028;-78
2023/07/07 05:13:03;;;;;;;0.00;0.00;;;17.10;99.90;;;;;;5054290;28;20021;-78
2023/07/07 05:15:30;;;;;;;3.95;0.40;;;17.20;99.90;;;;;;5052963;28;20033;-79
2023/07/07 05:17:56;;;;;;;0.00;0.00;;;17.20;99.90;;;;;;5054892;28;20473;-79
2023/07/07 05:20:21;;;;;;;1.40;0.35;;;17.10;99.90;;;;;;5055013;28;20083;-78
2023/07/07 05:22:47;;;;;;;0.00;0.00;;;17.10;99.90;;;;;;5053411;28;20497;-79
2023/07/07 05:25:13;;;;;;;0.00;0.00;;;17.30;99.90;;;;;;5054956;28;20086;-79
2023/07/07 05:27:39;;;;;;;0.10;0.10;;;17.40;99.90;;;;;;5054782;28;20078;-78
2023/07/07 05:30:05;;;;;;;0.55;0.45;;;17.50;99.90;;;;;;5054392;28;20424;-78
2023/07/07 05:32:31;;;;;;;0.00;0.00;;;17.70;99.90;;;;;;5054828;28;20033;-76
2023/07/07 05:34:57;;;;;;;0.00;0.00;;;17.90;99.90;;;;;;5054804;28;20025;-75
2023/07/07 05:37:23;;;;;;;0.10;0.10;;;18.00;99.90;;;;;;5054231;28;20029;-77
2023/07/07 05:39:49;;;;;;;0.30;0.30;;;18.00;99.90;;;;;;5054434;28;20040;-75
2023/07/07 05:42:14;;;;;;;0.30;0.30;;;18.00;99.90;;;;;;5053095;28;20436;-77
2023/07/07 05:44:40;;;;;;;0.85;0.85;;;17.90;99.90;;;;;;5054538;28;20120;-77
2023/07/07 05:47:06;;;;;;;0.10;0.10;;;18.00;99.90;;;;;;5054315;28;20025;-75
2023/07/07 05:49:32;;;;;;;0.10;0.10;;;18.10;99.90;;;;;;5043371;28;20044;-75
2023/07/07 05:51:57;;;;;;;0.25;0.17;;;18.10;99.90;;;;;;5047934;28;20021;-77
2023/07/07 05:54:23;;;;;;;0.00;0.00;;;18.20;99.90;;;;;;5052057;28;20037;-76
2023/07/07 05:56:50;;;;;;;0.08;0.08;;;18.20;99.90;;;;;;5052953;28;20425;-77
2023/07/07 05:59:15;;;;;;;0.75;0.75;;;18.10;99.90;;;;;;5045399;28;20068;-76
2023/07/07 06:01:42;;;;;;;6.72;0.77;;;18.10;99.90;;;;;;5042859;28;20496;-76
2023/07/07 06:04:07;;;;;;;0.15;0.15;;;18.20;99.90;;;;;;5048401;28;20093;-76
2023/07/07 06:06:33;;;;;;;0.43;0.40;;;18.40;99.90;;;;;;5051517;28;20116;-75
2023/07/07 06:08:59;;;;;;;0.00;0.00;;;18.60;99.90;;;;;;5050773;28;20056;-75
2023/07/07 06:11:25;;;;;;;1.35;0.90;;;18.60;99.90;;;;;;5051533;28;20445;-76
2023/07/07 06:13:50;;;;;;;0.30;0.30;;;18.80;99.90;;;;;;5052603;28;20465;-75
2023/07/07 06:16:17;;;;;;;0.00;0.00;;;19.00;99.90;;;;;;5051040;28;20025;-77
2023/07/07 06:18:43;;;;;;;2.47;1.27;;;19.00;99.90;;;;;;5052037;28;20044;-77
2023/07/07 06:21:09;;;;;;;4.32;1.95;;;18.90;99.90;;;;;;5052494;28;20025;-76
2023/07/07 06:23:35;;;;;;;0.28;0.28;;;19.00;99.90;;;;;;5052410;28;20029;-76
2023/07/07 06:26:01;;;;;;;0.38;0.32;;;19.00;99.90;;;;;;5052602;28;20032;-78
2023/07/07 06:28:27;;;;;;;9.27;0.95;;;19.20;99.90;;;;;;5050789;28;20028;-78
2023/07/07 06:30:53;;;;;;;0.10;0.10;;;19.30;99.90;;;;;;5052711;28;20029;-76
2023/07/07 06:33:19;;;;;;;0.50;0.50;;;19.50;99.90;;;;;;5052419;28;20359;-75
2023/07/07 06:35:45;;;;;;;0.10;0.10;;;19.70;99.90;;;;;;5052746;28;20057;-77
2023/07/07 06:38:11;;;;;;;0.60;0.60;;;19.80;99.90;;;;;;5052497;28;20438;-76
2023/07/07 06:40:37;;;;;;;0.20;0.20;;;19.80;99.90;;;;;;5042101;28;20044;-76
2023/07/07 06:43:03;;;;;;;7.72;1.13;;;19.90;99.90;;;;;;5051937;28;20044;-76
2023/07/07 06:45:31;;;;;;;0.25;0.05;;;19.90;99.90;;;;;;5051035;28;20462;-78
2023/07/07 06:47:58;;;;;;;0.47;0.28;;;19.90;99.90;;;;;;5052014;28;20029;-77
2023/07/07 06:50:32;;;;;;;0.80;0.65;;;20.00;99.90;;;;;;5051407;28;20105;-77
2023/07/07 06:52:57;;;;;;;0.98;0.98;;;20.10;99.90;;;;;;5052412;28;20029;-76
2023/07/07 06:55:23;;;;;;;0.88;0.57;;;20.20;99.90;;;;;;5052040;28;20036;-76
2023/07/07 06:57:49;;;;;;;0.00;0.00;;;20.40;99.90;;;;;;5050458;28;20608;-77
2023/07/07 07:00:16;;;;;;;1.25;0.32;;;20.50;99.90;;;;;;5052236;28;20123;-77
2023/07/07 07:02:43;;;;;;;0.38;0.20;;;20.60;99.90;;;;;;5050741;28;20371;-75
2023/07/07 07:05:09;;;;;;;4.05;0.90;;;20.90;99.90;;;;;;5051706;28;20071;-77
2023/07/07 07:07:34;;;;;;;0.47;0.40;;;21.00;99.90;;;;;;5052825;28;20021;-76
2023/07/07 07:10:02;;;;;;;0.52;0.52;;;21.00;99.90;;;;;;5053143;28;20480;-76
2023/07/07 07:12:29;;;;;;;0.75;0.30;;;21.20;99.90;;;;;;5052501;28;20032;-76
2023/07/07 07:14:55;;;;;;;0.55;0.32;;;21.30;99.90;;;;;;5053011;28;20027;-77
2023/07/07 07:17:24;;;;;;;0.80;0.80;;;21.50;99.90;;;;;;5052476;28;20111;-76
2023/07/07 07:19:51;;;;;;;0.00;0.00;;;21.40;99.90;;;;;;5052836;28;20056;-77
2023/07/07 07:22:17;;;;;;;0.52;0.20;;;21.50;99.90;;;;;;5051465;28;20104;-79
2023/07/07 07:24:43;;;;;;;1.65;0.52;;;21.60;99.90;;;;;;5051301;28;20119;-78
2023/07/07 07:27:09;;;;;;;0.30;0.30;;;21.80;99.90;;;;;;5052469;28;20033;-78
2023/07/07 07:29:34;;;;;;;0.00;0.00;;;21.80;99.90;;;;;;5052556;28;20031;-78
2023/07/07 07:32:00;;;;;;;0.55;0.55;;;21.90;99.90;;;;;;5052581;28;20462;-78
2023/07/07 07:34:28;;;;;;;0.80;0.52;;;21.90;99.90;;;;;;5052570;28;20036;-79
2023/07/07 07:36:56;;;;;;;0.32;0.32;;;22.00;99.50;;;;;;5052523;28;20029;-78
2023/07/07 07:39:23;;;;;;;0.30;0.30;;;22.00;99.70;;;;;;5052590;28;20120;-79
2023/07/07 07:41:51;;;;;;;0.00;0.00;;;22.20;99.90;;;;;;5052277;28;20028;-79
2023/07/07 07:44:19;;;;;;;1.88;0.52;;;22.50;99.20;;;;;;5052556;28;20029;-79
2023/07/07 07:46:47;;;;;;;0.55;0.55;;;22.60;98.80;;;;;;5052777;28;20037;-79
2023/07/07 07:49:13;;;;;;;0.57;0.45;;;22.60;98.00;;;;;;5051082;28;20013;-78
2023/07/07 07:51:39;;;;;;;0.20;0.20;;;22.60;97.80;;;;;;5052639;28;20041;-79
2023/07/07 07:54:11;;;;;;;0.00;0.00;;;22.70;99.00;;;;;;5051031;28;20021;-79
2023/07/07 07:56:38;;;;;;;0.05;0.05;;;23.00;98.80;;;;;;5051775;28;20037;-79
2023/07/07 07:59:05;;;;;;;0.00;0.00;;;23.20;98.00;;;;;;5052895;28;20075;-78
2023/07/07 08:01:31;;;;;;;0.20;0.20;;;23.30;96.90;;;;;;5055836;28;20079;-79
2023/07/07 08:03:58;;;;;;;0.10;0.10;;;23.20;96.40;;;;;;5057058;28;20031;-79
2023/07/07 08:06:23;;;;;;;0.10;0.10;;;23.30;96.50;;;;;;5058447;28;20100;-79
2023/07/07 08:08:49;;;;;;;0.30;0.30;;;23.60;96.50;;;;;;5057128;28;20100;-79
2023/07/07 08:11:19;;;;;;;0.47;0.40;;;23.60;95.30;;;;;;5057307;28;20025;-79
2023/07/07 08:13:45;;;;;;;0.77;0.77;;;23.80;95.50;;;;;;5056810;28;20039;-79
2023/07/07 08:16:12;;;;;;;0.43;0.43;;;23.90;96.40;;;;;;5056596;28;20033;-79
2023/07/07 08:18:39;;;;;;;0.22;0.22;;;24.10;95.20;;;;;;5057096;28;20072;-78
2023/07/07 08:21:05;;;;;;;0.15;0.10;;;24.00;94.90;;;;;;5055223;28;20061;-79
2023/07/07 08:23:31;;;;;;;22.13;6.32;;;24.00;94.80;;;;;;5056093;28;20025;-78
2023/07/07 08:25:57;;;;;;;0.00;0.00;;;24.10;95.10;;;;;;5055646;28;20531;-78
2023/07/07 08:28:23;;;;;;;0.10;0.10;;;24.40;95.30;;;;;;5055821;28;20108;-78
2023/07/07 08:30:49;;;;;;;0.00;0.00;;;24.80;95.30;;;;;;5038053;28;20074;-78
2023/07/07 08:33:15;;;;;;;0.00;0.00;;;25.00;95.00;;;;;;5056247;28;20029;-79
2023/07/07 08:35:41;;;;;;;0.00;0.00;;;25.20;94.60;;;;;;5055725;28;20025;-79
2023/07/07 08:38:07;;;;;;;0.00;0.00;;;25.40;94.10;;;;;;5055547;28;20083;-79
2023/07/07 08:40:42;;;;;;;0.00;0.00;;;25.60;93.70;;;;;;5055644;28;20099;-79
2023/07/07 08:43:10;;;;;;;0.00;0.00;;;25.90;93.10;;;;;;5055834;28;20052;-79
2023/07/07 08:45:36;;;;;;;0.75;0.20;;;25.90;93.00;;;;;;5055529;28;20057;-79
2023/07/07 08:48:16;;;;;;;0.90;0.47;;;25.70;92.20;;;;;;5054574;28;20029;-79
2023/07/07 08:51:04;;;;;;;0.60;0.25;;;25.50;92.10;;;;;;5055179;28;20116;-79
2023/07/07 08:53:57;;;;;;;1.15;0.63;;;25.60;91.10;;;;;;5055138;28;20037;-79
2023/07/07 08:56:47;;;;;;;0.03;0.03;;;25.40;90.20;;;;;;5045180;28;20028;-78
2023/07/07 08:59:55;;;;;;;0.90;0.55;;;25.40;91.70;;;;;;5055312;28;20478;-78
2023/07/07 09:02:30;;;;;;;1.10;0.43;;;25.60;91.50;;;;;;5055222;28;21101;-78
2023/07/07 09:05:32;;;;;;;1.10;0.35;;;25.60;90.80;;;;;;5055494;28;20041;-78
2023/07/07 09:08:19;;;;;;;2.13;1.08;;;25.60;91.20;;;;;;5041810;28;20108;-79
2023/07/07 09:11:07;;;;;;;0.70;0.32;;;25.90;87.20;;;;;;5054884;28;20425;-79
2023/07/07 09:13:35;;;;;;;0.57;0.57;;;26.10;89.10;;;;;;5054700;28;20040;-79
2023/07/07 09:16:17;;;;;;;3.85;0.70;;;26.10;88.60;;;;;;5054947;28;20013;-80
2023/07/07 09:18:53;;;;;;;0.30;0.30;;;26.00;86.80;;;;;;5055076;28;20048;-79
2023/07/07 09:21:28;;;;;;;0.10;0.03;;;26.00;87.40;;;;;;5053362;28;20060;-79
2023/07/07 09:23:58;;;;;;;0.20;0.20;;;26.30;89.20;;;;;;5053723;28;20116;-79
2023/07/07 09:26:30;;;;;;;0.80;0.63;;;26.40;85.50;;;;;;5054796;28;20388;-79
2023/07/07 09:28:56;;;;;;;;;;;26.30;87.30;;;;;;5055449;28;20029;-79
2023/07/07 09:31:31;;;;;;;0.25;0.22;;;26.80;88.80;;;;;;5053462;28;20285;-79
2023/07/07 09:33:59;;;;;;;0.00;0.00;;;27.00;87.50;;;;;;5041747;28;20040;-79
2023/07/07 09:36:56;;;;;;;1.75;0.65;;;27.30;87.00;;;;;;5053200;28;20029;-79
2023/07/07 09:39:42;;;;;;;0.63;0.40;;;26.90;85.20;;;;;;5036847;28;20080;-79
2023/07/07 09:42:38;;;;;;;0.57;0.30;;;26.50;86.50;;;;;;5054336;28;20028;-79
2023/07/07 09:45:23;;;;;;;0.10;0.10;;;26.80;86.00;;;;;;5053333;28;20044;-79
2023/07/07 09:48:35;;;;;;;1.15;0.75;;;27.10;85.90;;;;;;5054360;28;20025;-78
2023/07/07 09:51:11;;;;;;;0.00;0.00;;;27.10;86.30;;;;;;5041573;28;20069;-78
2023/07/07 09:53:39;;;;;;;0.20;0.20;;;27.60;86.10;;;;;;5054503;28;20025;-79
2023/07/07 09:56:10;;;;;;;0.10;0.10;;;27.60;82.70;;;;;;5054523;28;20547;-79
2023/07/07 09:58:53;;;;;;;0.00;0.00;;;27.10;82.10;;;;;;5054254;28;20029;-78
2023/07/07 10:01:20;;;;;;;0.17;0.17;;;27.20;85.70;;;;;;5042576;28;20043;-78
2023/07/07 10:03:49;;;;;;;0.00;0.00;;;27.10;81.70;;;;;;5054017;28;20083;-78
2023/07/07 10:06:41;;;;;;;0.30;0.30;;;27.20;81.70;;;;;;5053791;28;20025;-78
2023/07/07 10:09:14;;;;;;;0.13;0.13;;;27.40;81.50;;;;;;5053825;28;20474;-78
2023/07/07 10:11:42;;;;;;;0.70;0.28;;;26.90;79.00;;;;;;5054129;28;20036;-78
2023/07/07 10:14:13;;;;;;;0.65;0.45;;;26.80;81.50;;;;;;5053800;28;20017;-79
2023/07/07 10:16:46;;;;;;;0.88;0.60;;;26.80;80.30;;;;;;5053960;28;20087;-79
2023/07/07 10:19:13;;;;;;;0.63;0.63;;;27.00;80.10;;;;;;5053333;28;20173;-78
2023/07/07 10:21:39;;;;;;;0.10;0.10;;;27.00;81.00;;;;;;5053659;28;20033;-79
2023/07/07 10:24:05;;;;;;;0.10;0.10;;;27.20;81.70;;;;;;5051689;28;20033;-78
2023/07/07 10:26:31;;;;;;;2.33;0.30;;;27.50;80.70;;;;;;5053592;28;20021;-78
2023/07/07 10:29:02;;;;;;;0.00;0.00;;;27.90;80.50;;;;;;5053649;28;20367;-78
2023/07/07 10:31:28;;;;;;;0.00;0.00;;;28.30;80.80;;;;;;5053559;28;20040;-78
2023/07/07 10:34:00;;;;;;;0.32;0.32;;;28.40;80.20;;;;;;5053184;28;20024;-78
2023/07/07 10:36:30;;;;;;;2.50;0.47;;;28.40;78.90;;;;;;5053779;28;20029;-78
2023/07/07 10:38:57;;;;;;;0.00;0.00;;;28.10;77.80;;;;;;5053355;28;20045;-78
2023/07/07 10:41:24;;;;;;;11.70;2.28;;;28.20;79.50;;;;;;5053640;28;20043;-79
2023/07/07 10:43:50;;;;;;;0.30;0.30;;;28.30;77.40;;;;;;5035382;28;20033;-79
2023/07/07 10:46:26;;;;;;;0.00;0.00;;;28.70;78.10;;;;;;5110541;27;20594;-73
2023/07/07 10:48:55;;;;;;;0.85;0.70;;;29.00;77.10;;;;;;5110198;28;20024;-73
2023/07/07 10:51:52;;;;;;;0.10;0.10;;;28.90;76.10;;;;;;5110566;28;20119;-73
2023/07/07 10:54:44;;;;;;;0.28;0.28;;;28.70;77.50;;;;;;5110418;28;20498;-73
2023/07/07 10:57:42;;;;;;;;;;;28.80;77.80;;;;;;5110644;28;20085;-73
2023/07/07 11:00:17;;;;;;;3.50;0.65;;;29.00;77.50;;;;;;5097850;28;19908;-75
2023/07/07 11:02:51;;;;;;;0.63;0.45;;;28.50;74.80;;;;;;5110005;28;20065;-75
2023/07/07 11:05:40;;;;;;;0.45;0.45;;;28.50;77.50;;;;;;5110190;28;20071;-75
2023/07/07 11:08:21;;;;;;;0.10;0.10;;;28.70;77.60;;;;;;5110102;28;20114;-75
2023/07/07 11:10:59;;;;;;;0.73;0.60;;;29.40;77.60;;;;;;5110059;28;20020;-75
2023/07/07 11:13:28;;;;;;;0.85;0.57;;;28.90;76.10;;;;;;5109985;28;20035;-81
2023/07/07 11:16:15;;;;;;;4.70;0.15;;;29.00;77.40;;;;;;5110337;28;20028;-81
2023/07/07 11:18:55;;;;;;;0.20;0.20;;;29.20;77.10;;;;;;5109721;28;20032;-84
2023/07/07 11:21:55;;;;;;;0.10;0.10;;;29.80;77.60;;;;;;5109850;28;20392;-76
2023/07/07 11:24:40;;;;;;;0.38;0.38;;;30.00;75.30;;;;;;5109559;28;20072;-76
2023/07/07 11:27:33;;;;;;;0.32;0.32;;;29.30;75.40;;;;;;5076555;28;20484;-75
2023/07/07 11:30:14;;;;;;;0.10;0.10;;;29.40;76.10;;;;;;5085146;28;20046;-74
2023/07/07 11:33:06;;;;;;;0.68;0.68;;;29.30;74.40;;;;;;5091330;28;20117;-75
2023/07/07 11:35:53;;;;;;;0.20;0.20;;;28.80;75.10;;;;;;5086023;28;20369;-75
2023/07/07 11:38:56;;;;;;;0.20;0.20;;;29.30;75.00;;;;;;5088674;28;20366;-76
2023/07/07 11:41:24;;;;;;;0.15;0.15;;;29.50;75.40;;;;;;5086634;28;20484;-75
2023/07/07 11:44:13;;;;;;;0.28;0.13;;;30.00;74.90;;;;;;5080658;28;20092;-76
2023/07/07 11:46:51;;;;;;;0.03;0.03;;;30.30;74.50;;;;;;5080919;28;20106;-74
2023/07/07 11:49:25;;;;;;;1.10;1.00;;;30.40;75.30;;;;;;5090614;28;20447;-75
2023/07/07 11:52:09;;;;;;;0.45;0.30;;;30.40;73.60;;;;;;5094805;28;20028;-75
2023/07/07 11:54:59;;;;;;;0.10;0.10;;;30.20;73.60;;;;;;5092256;28;20361;-75
2023/07/07 11:57:34;;;;;;;0.55;0.45;;;30.70;73.90;;;;;;5078132;28;20111;-75
2023/07/07 12:00:26;;;;;;;0.32;0.30;;;30.70;72.40;;;;;;5069969;28;20103;-76
2023/07/07 12:03:14;;;;;;;0.17;0.17;;;29.70;73.20;;;;;;5063945;28;20511;-75
2023/07/07 12:05:40;;;;;;;0.98;0.98;;;29.80;73.70;;;;;;5076343;28;20036;-75
2023/07/07 12:08:16;;;;;;;0.00;0.00;;;30.10;73.70;;;;;;5078150;28;20107;-75
2023/07/07 12:10:46;;;;;;;0.75;0.63;;;30.80;74.30;;;;;;5082139;28;20066;-76
2023/07/07 12:13:25;;;;;;;2.97;1.25;;;31.30;72.80;;;;;;5079934;28;20425;-75
2023/07/07 12:16:12;;;;;;;0.13;0.13;;;31.00;71.60;;;;;;5076370;28;20036;-75
2023/07/07 12:18:44;;;;;;;2.67;0.50;;;30.90;71.70;;;;;;5063365;28;20033;-75
2023/07/07 12:21:16;;;;;;;0.30;0.30;;;30.30;71.60;;;;;;5073397;28;20024;-75
2023/07/07 12:24:04;;;;;;;0.03;0.03;;;30.40;73.60;;;;;;5080276;28;20107;-76
2023/07/07 12:26:42;;;;;;;1.25;1.15;;;30.90;72.80;;;;;;5082181;28;20101;-76
2023/07/07 12:29:12;;;;;;;0.32;0.13;;;31.30;72.60;;;;;;5076315;28;20048;-75
2023/07/07 12:31:38;;;;;;;0.00;0.00;;;31.70;71.90;;;;;;5074968;28;20024;-75
2023/07/07 12:34:37;;;;;;;4.32;1.25;;;32.40;72.20;;;;;;5089853;28;20357;-76
2023/07/07 12:37:21;;;;;;;1.42;1.27;;;31.70;69.10;;;;;;5082635;28;20043;-75
2023/07/07 12:40:09;;;;;;;0.52;0.50;;;30.80;69.70;;;;;;5080847;28;20024;-75
2023/07/07 12:42:38;;;;;;;0.85;0.50;;;31.30;69.70;;;;;;5062606;28;20024;-75
2023/07/07 12:45:30;;;;;;;0.63;0.45;;;31.70;72.30;;;;;;5084674;28;20078;-75
2023/07/07 12:48:26;;;;;;;0.50;0.50;;;31.70;70.80;;;;;;5086390;28;20531;-75
2023/07/07 12:51:01;;;;;;;0.45;0.45;;;31.10;69.30;;;;;;5068742;28;20052;-72
2023/07/07 12:53:37;;;;;;;0.10;0.10;;;31.30;71.50;;;;;;5075310;28;20028;-76
2023/07/07 12:56:15;;;;;;;0.10;0.10;;;31.90;70.30;;;;;;5077922;28;20028;-75
2023/07/07 12:58:48;;;;;;;1.20;0.45;;;32.20;71.30;;;;;;5084234;28;20028;-75
2023/07/07 13:01:14;;;;;;;1.27;1.17;;;32.50;69.70;;;;;;5079127;28;20518;-73
2023/07/07 13:04:00;;;;;;;0.43;0.43;;;32.30;68.60;;;;;;5077553;28;20040;-73
2023/07/07 13:06:35;;;;;;;1.58;0.68;;;32.60;69.40;;;;;;5080652;28;20062;-76
2023/07/07 13:09:10;;;;;;;0.45;0.28;;;32.70;68.50;;;;;;5086329;28;20060;-74
2023/07/07 13:11:36;;;;;;;0.70;0.55;;;32.20;69.30;;;;;;5081397;28;20043;-74